Soap Lake, Washington
Current Conditions -  °F | °C
As of 3:53 AM on Thursday 29 Jan 2015 (Local Time) from KEPH Reporting Station
Overcast Overcast  
Wind Chill: 30°   Ceiling: 1400
Heat Index: 36°   Visibility: 10mi
Dew Point: 32°   Wind: 7mph
Humidity: 86%   Direction: 340°NNW
Pressure: 30.46"   Gusts: NA
Location:  47.39°N, 119.49°W
Report Text: KEPH 291153Z AUTO 34006KT 10SM OVC014 02/00 A3046 RMK AO2 SLP325 T00220000 10028 20022 58000
Loading
Personal Weather Stations






























Interactive Weather Map New forecast layout! Learn more

10-Day Weather Forecast

Advertisements
Track Severe Weather on mobile